createdAt,value
2022-09-14T00:01:27.387Z,10.38
2022-09-14T00:04:00.439Z,10.52
2022-09-14T00:06:28.160Z,10.85
2022-09-14T00:08:55.937Z,10.88
2022-09-14T00:11:24.590Z,10.77
2022-09-14T00:13:51.950Z,12.18
2022-09-14T00:16:27.179Z,11.43
2022-09-14T00:18:56.725Z,12.40
2022-09-14T00:21:24.074Z,13.82
2022-09-14T00:23:50.443Z,14.07
2022-09-14T00:26:20.311Z,14.27
2022-09-14T00:28:52.896Z,13.32
2022-09-14T00:31:20.568Z,13.95
2022-09-14T00:33:48.466Z,11.85
2022-09-14T00:36:21.652Z,12.07
2022-09-14T00:38:48.854Z,12.05
2022-09-14T00:41:18.932Z,13.07
2022-09-14T00:43:57.654Z,13.00
2022-09-14T00:46:26.020Z,12.35
2022-09-14T00:48:53.520Z,13.43
2022-09-14T00:51:21.599Z,12.80
2022-09-14T00:53:48.437Z,13.45
2022-09-14T00:56:15.304Z,13.88
2022-09-14T00:58:44.596Z,12.73
2022-09-14T01:01:11.192Z,13.60
2022-09-14T01:03:37.766Z,13.48
2022-09-14T01:06:17.677Z,14.35
2022-09-14T01:09:02.448Z,13.48
2022-09-14T01:11:58.295Z,13.32
2022-09-14T01:14:31.249Z,14.65
2022-09-14T01:17:07.301Z,13.13
2022-09-14T01:19:52.871Z,14.40
2022-09-14T01:22:25.717Z,15.00
2022-09-14T01:24:57.995Z,16.00
2022-09-14T01:27:41.011Z,14.55
2022-09-14T01:30:19.128Z,15.15
2022-09-14T01:32:56.110Z,14.38
2022-09-14T01:35:37.858Z,15.35
2022-09-14T01:38:26.572Z,14.45
2022-09-14T01:40:53.549Z,15.27
2022-09-14T01:43:25.246Z,15.18
2022-09-14T01:45:56.954Z,15.55
2022-09-14T01:49:04.186Z,14.60
2022-09-14T01:51:53.482Z,14.25
2022-09-14T01:54:33.127Z,16.08
2022-09-14T01:57:15.463Z,16.70
2022-09-14T01:59:45.608Z,14.43
2022-09-14T02:02:28.827Z,15.05
2022-09-14T02:05:09.348Z,15.53
2022-09-14T02:07:37.119Z,14.80
2022-09-14T02:10:06.582Z,16.20
2022-09-14T02:12:33.249Z,15.00
2022-09-14T02:14:59.747Z,13.30
2022-09-14T02:17:26.276Z,12.02
2022-09-14T02:19:58.651Z,11.90
2022-09-14T02:22:26.885Z,12.70
2022-09-14T02:24:54.300Z,12.55
2022-09-14T02:27:21.509Z,13.80
2022-09-14T02:29:48.820Z,15.30
2022-09-14T02:32:30.460Z,15.10
2022-09-14T02:35:15.008Z,16.30
2022-09-14T02:38:12.922Z,17.25
2022-09-14T02:40:47.712Z,17.70
2022-09-14T02:43:26.029Z,16.50
2022-09-14T02:46:06.531Z,18.15
2022-09-14T02:48:43.975Z,19.02
2022-09-14T02:51:42.007Z,19.70
2022-09-14T02:54:16.614Z,18.27
2022-09-14T02:56:44.629Z,18.45
2022-09-14T02:59:11.594Z,18.33
2022-09-14T03:01:38.517Z,18.23
2022-09-14T03:04:05.072Z,17.65
2022-09-14T03:06:31.791Z,17.65
2022-09-14T03:08:58.540Z,17.90
2022-09-14T03:11:24.954Z,16.63
2022-09-14T03:13:51.334Z,17.58
2022-09-14T03:16:18.585Z,18.42
2022-09-14T03:18:45.221Z,17.23
2022-09-14T03:21:13.880Z,17.48
2022-09-14T03:23:48.346Z,18.48
2022-09-14T03:26:17.680Z,17.40
2022-09-14T03:28:44.321Z,16.42
2022-09-14T03:31:12.446Z,17.08
2022-09-14T03:33:39.243Z,17.67
2022-09-14T03:36:12.294Z,18.08
2022-09-14T03:38:38.856Z,19.17
2022-09-14T03:41:10.076Z,17.40
2022-09-14T03:43:36.434Z,18.02
2022-09-14T03:46:11.152Z,17.23
2022-09-14T03:48:37.780Z,18.60
2022-09-14T03:51:06.347Z,21.70
2022-09-14T03:53:33.466Z,16.95
2022-09-14T03:55:59.886Z,17.38
2022-09-14T03:58:30.958Z,21.33
2022-09-14T04:01:03.749Z,24.92
2022-09-14T04:03:31.428Z,17.05
2022-09-14T04:05:58.467Z,18.02
2022-09-14T04:08:24.949Z,20.42
2022-09-14T04:10:51.735Z,19.02
2022-09-14T04:13:18.315Z,19.80
2022-09-14T04:15:44.759Z,19.60
2022-09-14T04:18:11.143Z,19.45
2022-09-14T04:20:37.531Z,19.35
2022-09-14T04:23:03.855Z,18.85
2022-09-14T04:25:30.218Z,18.45
2022-09-14T04:28:19.284Z,19.77
2022-09-14T04:30:43.174Z,16.42
2022-09-14T04:33:09.580Z,15.40
2022-09-14T04:35:37.690Z,16.90
2022-09-14T04:38:04.656Z,17.70
2022-09-14T04:40:31.416Z,16.05
2022-09-14T04:42:57.783Z,15.45
2022-09-14T04:45:24.200Z,25.30
2022-09-14T04:47:50.633Z,16.70
2022-09-14T04:50:17.082Z,19.27
2022-09-14T04:52:43.452Z,17.17
2022-09-14T04:55:10.248Z,16.13
2022-09-14T04:57:36.605Z,16.60
2022-09-14T05:00:04.180Z,16.60
2022-09-14T05:02:31.954Z,15.48
2022-09-14T05:04:58.930Z,16.15
2022-09-14T05:07:25.283Z,16.35
2022-09-14T05:09:51.768Z,16.40
2022-09-14T05:12:18.162Z,16.50
2022-09-14T05:14:44.505Z,15.90
2022-09-14T05:17:11.108Z,19.25
2022-09-14T05:19:37.459Z,15.38
2022-09-14T05:22:03.924Z,17.10
2022-09-14T05:24:30.297Z,18.55
2022-09-14T05:27:00.506Z,19.88
2022-09-14T05:29:29.546Z,19.17
2022-09-14T05:31:55.945Z,21.17
2022-09-14T05:34:22.354Z,19.20
2022-09-14T05:36:48.805Z,20.67
2022-09-14T05:39:17.722Z,20.02
2022-09-14T05:41:49.223Z,20.30
2022-09-14T05:44:15.591Z,20.00
2022-09-14T05:46:42.024Z,19.20
2022-09-14T05:49:08.480Z,18.70
2022-09-14T05:51:35.139Z,21.02
2022-09-14T05:54:01.674Z,20.90
2022-09-14T05:56:29.781Z,20.25
2022-09-14T05:58:56.418Z,22.77
2022-09-14T06:01:25.247Z,21.92
2022-09-14T06:03:56.780Z,21.10
2022-09-14T06:06:23.759Z,21.35
2022-09-14T06:08:52.575Z,22.08
2022-09-14T06:11:21.550Z,22.30
2022-09-14T06:13:48.247Z,20.45
2022-09-14T06:16:16.398Z,20.83
2022-09-14T06:18:44.788Z,20.65
2022-09-14T06:21:15.240Z,18.92
2022-09-14T06:23:42.328Z,20.33
2022-09-14T06:26:09.466Z,19.83
2022-09-14T06:28:36.152Z,19.27
2022-09-14T06:31:04.516Z,19.48
2022-09-14T06:33:31.840Z,19.20
2022-09-14T06:36:00.942Z,21.67
2022-09-14T06:38:28.561Z,21.30
2022-09-14T06:40:57.039Z,20.65
2022-09-14T06:43:28.579Z,20.55
2022-09-14T06:46:31.746Z,21.58
2022-09-14T06:49:10.615Z,20.55
2022-09-14T06:51:40.635Z,20.50
2022-09-14T06:54:07.599Z,19.05
2022-09-14T06:56:41.733Z,19.40
2022-09-14T06:59:11.426Z,20.48
2022-09-14T07:01:38.111Z,20.58
2022-09-14T07:04:05.753Z,19.95
2022-09-14T07:06:39.147Z,21.02
2022-09-14T07:09:06.248Z,20.75
2022-09-14T07:11:32.909Z,22.98
2022-09-14T07:13:59.456Z,21.40
2022-09-14T07:16:26.710Z,22.17
2022-09-14T07:18:54.835Z,21.42
2022-09-14T07:21:21.665Z,21.45
2022-09-14T07:23:48.596Z,20.27
2022-09-14T07:26:16.411Z,20.58
2022-09-14T07:28:44.483Z,22.20
2022-09-14T07:31:15.783Z,22.15
2022-09-14T07:33:42.240Z,20.27
2022-09-14T07:36:10.787Z,20.00
2022-09-14T07:38:51.626Z,19.63
2022-09-14T07:41:20.956Z,19.48
2022-09-14T07:43:51.844Z,21.23
2022-09-14T07:46:19.116Z,20.55
2022-09-14T07:48:45.818Z,19.05
2022-09-14T07:51:12.758Z,20.00
2022-09-14T07:53:42.747Z,19.60
2022-09-14T07:56:10.970Z,18.90
2022-09-14T07:58:37.345Z,17.60
2022-09-14T08:01:08.433Z,19.08
2022-09-14T08:03:36.471Z,17.15
2022-09-14T08:06:05.802Z,17.42
2022-09-14T08:08:36.095Z,18.00
2022-09-14T08:11:07.204Z,18.98
2022-09-14T08:13:38.588Z,16.30
2022-09-14T08:16:06.252Z,17.33
2022-09-14T08:18:35.168Z,16.02
2022-09-14T08:21:12.539Z,14.80
2022-09-14T08:23:40.042Z,13.80
2022-09-14T08:26:08.920Z,13.48
2022-09-14T08:28:36.454Z,13.48
2022-09-14T08:31:24.660Z,11.80
2022-09-14T08:33:57.146Z,11.57
2022-09-14T08:36:25.335Z,10.27
2022-09-14T08:38:51.825Z,10.50
2022-09-14T08:41:18.202Z,9.73
2022-09-14T08:43:44.753Z,8.90
2022-09-14T08:46:22.259Z,7.38
2022-09-14T08:48:49.239Z,7.18
2022-09-14T08:51:18.013Z,7.18
2022-09-14T08:53:45.352Z,6.40
2022-09-14T08:56:17.310Z,6.05
2022-09-14T08:58:53.055Z,6.60
2022-09-14T09:01:29.095Z,6.50
2022-09-14T09:04:12.064Z,6.32
2022-09-14T09:07:02.552Z,6.18
2022-09-14T09:09:47.303Z,5.97
2022-09-14T09:12:19.089Z,6.70
2022-09-14T09:14:51.723Z,5.82
2022-09-14T09:17:44.602Z,6.13
2022-09-14T09:20:16.871Z,6.45
2022-09-14T09:22:50.228Z,5.95
2022-09-14T09:25:23.752Z,5.80
2022-09-14T09:27:51.505Z,5.72
2022-09-14T09:30:18.161Z,6.43
2022-09-14T09:32:44.562Z,6.22
2022-09-14T09:35:18.066Z,5.97
2022-09-14T09:37:44.488Z,5.75
2022-09-14T09:40:20.580Z,5.82
2022-09-14T09:43:10.527Z,5.63
2022-09-14T09:46:03.053Z,4.90
2022-09-14T09:48:38.508Z,4.57
2022-09-14T09:51:10.798Z,4.85
2022-09-14T09:53:49.883Z,4.65
2022-09-14T09:56:23.414Z,4.45
2022-09-14T09:58:54.565Z,3.50
2022-09-14T10:01:33.114Z,4.22
2022-09-14T10:04:30.119Z,3.40
2022-09-14T10:07:00.649Z,4.13
2022-09-14T10:09:28.923Z,3.50
2022-09-14T10:12:01.669Z,3.47
2022-09-14T10:14:31.968Z,3.95
2022-09-14T10:17:17.263Z,3.45
2022-09-14T10:19:54.774Z,3.35
2022-09-14T10:22:32.052Z,3.22
2022-09-14T10:25:26.082Z,3.28
2022-09-14T10:27:55.373Z,3.03
2022-09-14T10:30:51.083Z,3.47
2022-09-14T10:33:18.612Z,3.47
2022-09-14T10:35:57.338Z,3.17
2022-09-14T10:38:36.051Z,3.05
2022-09-14T10:41:31.321Z,3.25
2022-09-14T10:44:03.673Z,4.00
2022-09-14T10:46:37.627Z,3.17
2022-09-14T10:49:04.058Z,3.17
2022-09-14T10:51:53.355Z,3.22
2022-09-14T10:54:48.189Z,3.08
2022-09-14T10:57:43.957Z,3.30
2022-09-14T11:00:20.964Z,3.25
2022-09-14T11:03:02.680Z,3.58
2022-09-14T11:05:38.695Z,3.35
2022-09-14T11:08:36.788Z,3.30
2022-09-14T11:11:25.022Z,3.83
2022-09-14T11:14:29.887Z,3.03
2022-09-14T11:16:56.230Z,2.60
2022-09-14T11:19:53.496Z,3.28
2022-09-14T11:22:57.282Z,3.47
2022-09-14T11:25:56.398Z,3.13
2022-09-14T11:28:30.936Z,3.50
2022-09-14T11:31:11.881Z,3.13
2022-09-14T11:33:51.840Z,3.70
2022-09-14T11:36:36.478Z,3.55
2022-09-14T11:39:13.080Z,2.92
2022-09-14T11:41:47.654Z,2.92
2022-09-14T11:44:21.659Z,2.83
2022-09-14T11:47:13.003Z,3.13
2022-09-14T11:49:57.663Z,3.05
2022-09-14T11:52:27.029Z,2.97
2022-09-14T11:54:54.413Z,3.03
2022-09-14T11:57:25.214Z,2.78
2022-09-14T11:59:52.990Z,3.17
2022-09-14T12:02:22.353Z,2.65
2022-09-14T12:05:07.134Z,2.92
2022-09-14T12:07:39.379Z,3.55
2022-09-14T12:10:18.079Z,2.17
2022-09-14T12:13:17.388Z,3.30
2022-09-14T12:15:45.428Z,2.85
2022-09-14T12:18:11.821Z,3.30
2022-09-14T12:20:38.529Z,3.03
2022-09-14T12:23:13.039Z,3.13
2022-09-14T12:25:52.919Z,3.72
2022-09-14T12:28:37.569Z,3.90
2022-09-14T12:31:04.046Z,3.45
2022-09-14T12:33:30.912Z,2.78
2022-09-14T12:35:57.863Z,2.80
2022-09-14T12:38:30.244Z,1.77
2022-09-14T12:40:57.512Z,1.30
2022-09-14T12:43:32.763Z,2.42
2022-09-14T12:46:31.649Z,2.10
2022-09-14T12:49:05.773Z,1.90
2022-09-14T12:51:48.194Z,1.70
2022-09-14T12:54:29.493Z,2.00
2022-09-14T12:57:08.057Z,1.52
2022-09-14T12:59:44.173Z,1.95
2022-09-14T13:02:48.393Z,1.55
2022-09-14T13:05:20.093Z,1.98
2022-09-14T13:07:47.230Z,1.50
2022-09-14T13:10:22.744Z,1.83
2022-09-14T13:12:50.777Z,1.65
2022-09-14T13:15:28.043Z,1.60
2022-09-14T13:18:03.751Z,1.48
2022-09-14T13:20:32.430Z,1.73
2022-09-14T13:22:59.209Z,1.75
2022-09-14T13:25:36.339Z,1.95
2022-09-14T13:28:16.804Z,2.22
2022-09-14T13:30:43.658Z,2.67
2022-09-14T13:33:17.669Z,2.38
2022-09-14T13:38:21.840Z,3.10
2022-09-14T13:40:50.485Z,2.72
2022-09-14T13:43:18.346Z,3.50
2022-09-14T13:45:46.306Z,3.70
2022-09-14T13:48:18.732Z,4.13
2022-09-14T13:50:48.677Z,3.40
2022-09-14T13:53:53.403Z,3.47
2022-09-14T13:56:29.813Z,3.33
2022-09-14T13:59:08.518Z,3.17
2022-09-14T14:01:41.379Z,3.25
2022-09-14T14:04:24.149Z,2.95
2022-09-14T14:07:22.256Z,3.38
2022-09-14T14:09:52.399Z,3.00
2022-09-14T14:12:26.709Z,3.00
2022-09-14T14:15:02.072Z,3.30
2022-09-14T14:17:33.400Z,3.50
2022-09-14T14:20:21.073Z,2.83
2022-09-14T14:23:11.028Z,3.17
2022-09-14T14:25:53.960Z,2.80
2022-09-14T14:28:26.006Z,3.30
2022-09-14T14:30:54.129Z,3.15
2022-09-14T14:33:21.049Z,2.55
2022-09-14T14:35:49.232Z,2.47
2022-09-14T14:38:16.323Z,2.55
2022-09-14T14:40:44.776Z,2.95
2022-09-14T14:43:18.826Z,2.58
2022-09-14T14:45:47.731Z,2.25
2022-09-14T14:48:14.348Z,2.97
2022-09-14T14:50:40.862Z,3.33
2022-09-14T14:53:07.707Z,2.88
2022-09-14T14:55:38.764Z,3.25
2022-09-14T14:58:08.601Z,2.70
2022-09-14T15:00:36.791Z,2.53
2022-09-14T15:03:03.185Z,2.90
2022-09-14T15:05:30.987Z,2.72
2022-09-14T15:07:57.635Z,2.05
2022-09-14T15:10:26.107Z,2.22
2022-09-14T15:12:52.646Z,2.58
2022-09-14T15:15:23.196Z,2.03
2022-09-14T15:17:50.267Z,2.40
2022-09-14T15:20:19.664Z,2.10
2022-09-14T15:22:47.141Z,2.22
2022-09-14T15:25:14.193Z,1.70
2022-09-14T15:27:40.819Z,1.77
2022-09-14T15:30:08.786Z,1.35
2022-09-14T15:32:35.619Z,1.60
2022-09-14T15:35:03.009Z,1.92
2022-09-14T15:37:29.520Z,1.55
2022-09-14T15:39:56.115Z,2.03
2022-09-14T15:42:24.439Z,1.45
2022-09-14T15:44:51.229Z,1.52
2022-09-14T15:47:17.629Z,1.73
2022-09-14T15:49:44.198Z,1.52
2022-09-14T15:52:11.626Z,1.27
2022-09-14T15:54:39.123Z,1.60
2022-09-14T15:57:07.925Z,1.20
2022-09-14T15:59:35.265Z,1.67
2022-09-14T16:02:02.327Z,1.40
2022-09-14T16:04:29.499Z,1.75
2022-09-14T16:06:55.846Z,1.48
2022-09-14T16:09:23.110Z,1.38
2022-09-14T16:11:49.589Z,1.50
2022-09-14T16:14:15.956Z,1.73
2022-09-14T16:16:42.424Z,1.50
2022-09-14T16:19:13.382Z,1.67
2022-09-14T16:21:41.593Z,1.40
2022-09-14T16:24:13.453Z,1.77
2022-09-14T16:26:40.543Z,2.03
2022-09-14T16:29:12.754Z,1.40
2022-09-14T16:31:41.429Z,1.50
2022-09-14T16:34:18.804Z,1.38
2022-09-14T16:36:48.509Z,1.10
2022-09-14T16:39:18.055Z,1.00
2022-09-14T16:41:45.099Z,1.30
2022-09-14T16:44:23.334Z,1.50
2022-09-14T16:46:50.948Z,1.33
2022-09-14T16:49:19.196Z,1.08
2022-09-14T16:51:47.749Z,1.35
2022-09-14T16:54:23.066Z,1.50
2022-09-14T16:56:50.264Z,1.33
2022-09-14T16:59:17.724Z,1.30
2022-09-14T17:01:48.692Z,1.40
2022-09-14T17:04:22.061Z,1.20
2022-09-14T17:06:50.336Z,2.67
2022-09-14T17:09:20.475Z,1.48
2022-09-14T17:11:48.507Z,1.45
2022-09-14T17:14:21.189Z,1.27
2022-09-14T17:16:47.788Z,1.60
2022-09-14T17:19:14.802Z,1.27
2022-09-14T17:21:43.103Z,1.35
2022-09-14T17:24:10.299Z,1.40
2022-09-14T17:26:37.084Z,1.70
2022-09-14T17:29:05.272Z,1.65
2022-09-14T17:31:34.720Z,1.98
2022-09-14T17:34:04.625Z,1.45
2022-09-14T17:36:31.448Z,1.60
2022-09-14T17:38:59.711Z,1.90
2022-09-14T17:41:28.058Z,1.50
2022-09-14T17:43:57.282Z,1.75
2022-09-14T17:46:26.778Z,1.45
2022-09-14T17:48:53.540Z,1.33
2022-09-14T17:51:22.525Z,1.45
2022-09-14T17:53:52.511Z,1.75
2022-09-14T17:56:21.431Z,2.00
2022-09-14T17:58:49.602Z,1.73
2022-09-14T18:01:18.969Z,1.60
2022-09-14T18:03:51.848Z,2.60
2022-09-14T18:06:19.096Z,2.05
2022-09-14T18:08:45.760Z,4.20
2022-09-14T18:11:15.950Z,2.05
2022-09-14T18:13:43.936Z,1.52
2022-09-14T18:16:11.241Z,1.73
2022-09-14T18:18:38.067Z,2.20
2022-09-14T18:21:04.777Z,1.73
2022-09-14T18:23:31.437Z,2.30
2022-09-14T18:25:58.052Z,2.40
2022-09-14T18:28:24.634Z,2.47
2022-09-14T18:31:00.048Z,2.28
2022-09-14T18:33:26.494Z,2.47
2022-09-14T18:35:54.085Z,2.10
2022-09-14T18:38:20.450Z,2.38
2022-09-14T18:40:47.015Z,2.72
2022-09-14T18:43:15.929Z,15.60
2022-09-14T18:45:44.143Z,10.93
2022-09-14T18:48:11.310Z,4.22
2022-09-14T18:50:38.693Z,7.68
2022-09-14T18:53:05.863Z,4.78
2022-09-14T18:55:33.708Z,11.25
2022-09-14T18:58:01.040Z,6.03
2022-09-14T19:00:28.186Z,7.43
2022-09-14T19:02:56.671Z,3.55
2022-09-14T19:05:24.979Z,4.30
2022-09-14T19:07:51.448Z,4.43
2022-09-14T19:10:17.988Z,7.13
2022-09-14T19:12:44.588Z,2.40
2022-09-14T19:15:11.559Z,2.35
2022-09-14T19:17:38.194Z,4.10
2022-09-14T19:20:06.975Z,1.92
2022-09-14T19:22:34.433Z,2.13
2022-09-14T19:25:00.848Z,2.50
2022-09-14T19:27:27.586Z,2.63
2022-09-14T19:29:54.020Z,2.28
2022-09-14T19:32:20.605Z,1.95
2022-09-14T19:34:47.051Z,2.80
2022-09-14T19:37:13.551Z,2.15
2022-09-14T19:39:42.147Z,2.92
2022-09-14T19:42:08.960Z,2.72
2022-09-14T19:44:35.348Z,3.38
2022-09-14T19:47:02.056Z,2.03
2022-09-14T19:49:28.498Z,2.13
2022-09-14T19:52:00.451Z,2.20
2022-09-14T19:54:26.864Z,2.47
2022-09-14T19:56:53.596Z,2.75
2022-09-14T19:59:20.107Z,2.78
2022-09-14T20:01:47.513Z,3.33
2022-09-14T20:04:15.665Z,3.30
2022-09-14T20:06:43.541Z,3.80
2022-09-14T20:09:16.280Z,3.10
2022-09-14T20:11:45.008Z,3.10
2022-09-14T20:14:15.198Z,2.85
2022-09-14T20:16:44.425Z,2.70
2022-09-14T20:19:16.279Z,2.50
2022-09-14T20:21:44.516Z,5.47
2022-09-14T20:24:16.603Z,3.15
2022-09-14T20:26:50.927Z,4.18
2022-09-14T20:29:19.587Z,3.20
2022-09-14T20:31:47.336Z,3.13
2022-09-14T20:34:16.203Z,4.90
2022-09-14T20:36:48.626Z,4.20
2022-09-14T20:39:15.823Z,3.60
2022-09-14T20:41:42.176Z,3.45
2022-09-14T20:44:11.938Z,3.58
2022-09-14T20:46:41.301Z,4.85
2022-09-14T20:49:11.957Z,2.90
2022-09-14T20:51:39.220Z,2.78
2022-09-14T20:54:07.075Z,3.25
2022-09-14T20:56:35.199Z,6.93
2022-09-14T20:59:06.862Z,5.78
2022-09-14T21:01:35.744Z,6.18
2022-09-14T21:04:05.049Z,5.65
2022-09-14T21:06:32.044Z,4.22
2022-09-14T21:08:59.864Z,3.20
2022-09-14T21:11:27.018Z,3.50
2022-09-14T21:13:55.098Z,3.05
2022-09-14T21:16:32.946Z,3.50
2022-09-14T21:19:02.188Z,3.17
2022-09-14T21:21:29.472Z,3.17
2022-09-14T21:23:57.310Z,3.70
2022-09-14T21:26:25.523Z,2.95
2022-09-14T21:28:59.739Z,5.75
2022-09-14T21:31:28.292Z,3.25
2022-09-14T21:33:57.883Z,3.10
2022-09-14T21:36:28.124Z,3.35
2022-09-14T21:38:57.018Z,5.32
2022-09-14T21:41:26.493Z,4.07
2022-09-14T21:43:53.449Z,3.92
2022-09-14T21:46:20.039Z,3.47
2022-09-14T21:48:46.639Z,3.30
2022-09-14T21:51:34.229Z,3.20
2022-09-14T21:54:05.000Z,3.15
2022-09-14T21:56:34.674Z,3.00
2022-09-14T21:59:03.091Z,3.58
2022-09-14T22:01:30.419Z,3.60
2022-09-14T22:03:57.791Z,3.40
2022-09-14T22:06:27.605Z,3.70
2022-09-14T22:08:54.402Z,3.95
2022-09-14T22:11:23.684Z,4.97
2022-09-14T22:14:07.978Z,3.85
2022-09-14T22:19:05.420Z,3.70
2022-09-14T22:21:35.514Z,3.47
2022-09-14T22:24:04.367Z,4.00
2022-09-14T22:26:32.027Z,3.63
2022-09-14T22:28:59.276Z,4.28
2022-09-14T22:31:27.383Z,4.10
2022-09-14T22:33:55.558Z,4.40
2022-09-14T22:36:22.564Z,3.55
2022-09-14T22:38:49.031Z,4.28
2022-09-14T22:41:22.169Z,4.32
2022-09-14T22:43:49.031Z,4.33
2022-09-14T22:46:17.057Z,4.55
2022-09-14T22:48:44.072Z,4.72
2022-09-14T22:51:20.367Z,3.80
2022-09-14T22:53:46.819Z,3.30
2022-09-14T22:56:23.061Z,4.10
2022-09-14T22:58:50.103Z,4.60
2022-09-14T23:01:25.195Z,3.97
2022-09-14T23:04:00.746Z,4.35
2022-09-14T23:06:29.647Z,5.10
2022-09-14T23:08:56.604Z,4.95
2022-09-14T23:11:23.088Z,5.22
2022-09-14T23:13:50.258Z,4.90
2022-09-14T23:16:19.095Z,4.18
2022-09-14T23:18:50.984Z,3.88
2022-09-14T23:21:18.163Z,4.50
2022-09-14T23:23:44.605Z,4.43
2022-09-14T23:26:12.031Z,3.22
2022-09-14T23:28:39.141Z,3.25
2022-09-14T23:31:06.300Z,3.15
2022-09-14T23:33:32.806Z,3.45
2022-09-14T23:35:59.389Z,2.60
2022-09-14T23:38:25.918Z,3.00
2022-09-14T23:40:52.382Z,2.65
2022-09-14T23:43:19.440Z,2.75
2022-09-14T23:45:47.236Z,2.75
2022-09-14T23:48:14.817Z,2.35
2022-09-14T23:50:41.242Z,2.40
2022-09-14T23:53:08.291Z,2.53
2022-09-14T23:55:35.114Z,2.13
2022-09-14T23:58:01.488Z,1.90
